Time;durP1;ratioP1;P1;durP2;ratioP2;P2;SDS_P1;SDS_P2;PMS_P1;PMS_P2;Temp;Humidity;BMP_temperature;BMP_pressure;BME280_temperature;BME280_humidity;BME280_pressure;Samples;Min_cycle;Max_cycle;Signal;HPM_P1;HPM_P2
2023/02/08 00:01:47;;;;;;;20.95;11.93;;;;;;;-2.51;64.75;102810.63;5013355;28;20017;-88
2023/02/08 00:04:12;;;;;;;20.75;11.50;;;;;;;-2.44;64.14;102811.44;5010387;28;20140;-88
2023/02/08 00:06:38;;;;;;;24.80;11.75;;;;;;;-2.43;64.17;102802.94;5008048;28;20541;-88
2023/02/08 00:09:03;;;;;;;23.17;12.18;;;;;;;-2.49;64.53;102808.91;5025818;28;20029;-88
2023/02/08 00:11:29;;;;;;;22.13;11.85;;;;;;;-2.57;65.00;102820.84;5002625;28;20033;-89
2023/02/08 00:13:54;;;;;;;23.63;12.15;;;;;;;-2.65;65.06;102817.44;5009033;28;20041;-89
2023/02/08 00:16:19;;;;;;;20.30;11.45;;;;;;;-2.71;65.86;102814.91;5012230;28;20037;-89
2023/02/08 00:18:45;;;;;;;26.92;12.02;;;;;;;-2.70;65.40;102811.50;5027879;28;20029;-89
2023/02/08 00:21:14;;;;;;;18.05;10.27;;;;;;;-2.74;66.13;102812.34;5019630;28;20088;-89
2023/02/08 00:23:39;;;;;;;27.38;11.55;;;;;;;-2.79;65.99;102807.25;5025460;28;20179;-88
2023/02/08 00:26:05;;;;;;;22.58;11.73;;;;;;;-2.83;66.42;102817.47;5013482;28;20116;-89
2023/02/08 00:28:31;;;;;;;23.88;12.65;;;;;;;-2.93;66.78;102818.34;5012674;28;20064;-89
2023/02/08 00:30:59;;;;;;;23.10;11.57;;;;;;;-2.92;66.85;102804.75;5013223;28;20120;-89
2023/02/08 00:33:24;;;;;;;25.70;12.32;;;;;;;-2.89;67.45;102810.69;5030432;28;20025;-89
2023/02/08 00:35:49;;;;;;;23.02;11.75;;;;;;;-2.67;66.48;102820.00;5031298;28;20090;-89
2023/02/08 00:38:15;;;;;;;25.38;11.93;;;;;;;-2.43;65.33;102813.16;5030624;28;20037;-89
2023/02/08 00:40:40;;;;;;;22.80;13.00;;;;;;;-2.45;65.35;102809.75;5030848;28;20033;-89
2023/02/08 00:43:06;;;;;;;24.58;12.27;;;;;;;-2.53;65.82;102814.03;5005839;28;20029;-89
2023/02/08 00:45:32;;;;;;;24.08;12.20;;;;;;;-2.58;65.23;102808.94;5012331;28;20044;-89
2023/02/08 00:47:57;;;;;;;22.20;11.52;;;;;;;-2.62;66.55;102803.84;5031013;28;20033;-89
2023/02/08 00:50:23;;;;;;;25.42;12.82;;;;;;;-2.59;66.01;102806.38;5027074;28;20025;-89
2023/02/08 00:52:48;;;;;;;22.52;12.15;;;;;;;-2.65;67.57;102809.78;5022303;28;20057;-89
2023/02/08 00:55:14;;;;;;;20.88;11.93;;;;;;;-2.41;65.33;102814.84;5005954;28;20036;-89
2023/02/08 00:57:39;;;;;;;23.58;12.63;;;;;;;-2.30;65.45;102812.22;5011940;28;20373;-89
2023/02/08 01:00:06;;;;;;;21.50;11.63;;;;;;;-2.35;65.78;102816.50;5013117;28;20037;-90
2023/02/08 01:02:32;;;;;;;23.48;11.95;;;;;;;-2.41;65.88;102825.06;5011787;28;20112;-89
2023/02/08 01:04:57;;;;;;;27.23;12.90;;;;;;;-2.51;66.24;102820.81;5032113;28;20123;-89
2023/02/08 01:07:23;;;;;;;25.05;13.25;;;;;;;-2.63;67.06;102814.91;5012091;28;20030;-89
2023/02/08 01:09:48;;;;;;;23.67;12.30;;;;;;;-2.73;67.65;102820.00;5030640;28;20031;-88
2023/02/08 01:12:13;;;;;;;25.27;12.05;;;;;;;-2.78;67.96;102818.31;5030517;28;20113;-89
2023/02/08 01:14:40;;;;;;;25.08;12.00;;;;;;;-2.75;68.14;102823.41;5029720;28;20416;-89
2023/02/08 01:17:06;;;;;;;23.60;12.73;;;;;;;-2.69;67.67;102810.66;5012529;28;20128;-89
2023/02/08 01:19:32;;;;;;;21.20;12.07;;;;;;;-2.64;67.59;102814.03;5011360;28;20028;-89
2023/02/08 01:21:57;;;;;;;21.65;11.93;;;;;;;-2.63;67.97;102815.75;5011989;28;20739;-89
2023/02/08 01:24:23;;;;;;;22.17;12.52;;;;;;;-2.65;68.09;102816.59;5011423;28;20030;-89
2023/02/08 01:26:51;;;;;;;27.25;12.63;;;;;;;-2.53;68.33;102831.88;5012733;28;20408;-88
2023/02/08 01:29:16;;;;;;;26.58;12.73;;;;;;;-2.19;65.98;102822.41;5011484;28;20029;-89
2023/02/08 01:31:43;;;;;;;28.13;12.65;;;;;;;-2.00;65.05;102811.28;5009987;28;20099;-89
2023/02/08 01:34:10;;;;;;;23.65;13.30;;;;;;;-2.06;65.15;102808.75;5030080;28;20022;-88
2023/02/08 01:36:37;;;;;;;25.73;13.20;;;;;;;-2.14;65.53;102808.78;5029108;28;20025;-89
2023/02/08 01:39:05;;;;;;;24.30;12.80;;;;;;;-2.22;66.22;102812.22;5030594;28;20025;-89
2023/02/08 01:41:37;;;;;;;26.08;13.13;;;;;;;-2.30;66.08;102801.16;5011210;28;20025;-89
2023/02/08 01:44:12;;;;;;;25.70;13.00;;;;;;;-2.43;66.89;102805.50;5006242;28;20116;-88
2023/02/08 01:46:42;;;;;;;27.73;12.50;;;;;;;-2.51;66.94;102808.06;5011627;28;20083;-89
2023/02/08 01:49:16;;;;;;;25.15;13.02;;;;;;;-2.59;67.46;102812.34;5012357;28;20495;-89
2023/02/08 01:51:54;;;;;;;25.90;13.32;;;;;;;-2.72;67.30;102803.00;5008940;28;20033;-89
2023/02/08 01:54:22;;;;;;;23.65;13.13;;;;;;;-2.78;67.93;102803.84;5010380;28;20138;-89
2023/02/08 01:56:49;;;;;;;26.48;13.23;;;;;;;-2.85;68.76;102798.78;5011878;28;20049;-89
2023/02/08 01:59:44;;;;;;;28.30;14.52;;;;;;;-2.80;68.68;102786.84;5011869;28;20346;-89
2023/02/08 02:02:14;;;;;;;28.75;13.38;;;;;;;-2.56;67.25;102781.69;5028305;28;20041;-89
2023/02/08 02:04:40;;;;;;;23.98;12.68;;;;;;;-2.47;67.07;102794.44;5026991;28;20369;-89
2023/02/08 02:07:05;;;;;;;28.83;13.75;;;;;;;-2.51;66.76;102789.34;5011720;28;20064;-89
2023/02/08 02:09:41;;;;;;;24.27;13.45;;;;;;;-2.62;67.52;102794.47;5029485;28;20415;-89
2023/02/08 02:12:08;;;;;;;24.05;13.38;;;;;;;-2.74;68.10;102792.78;5008792;28;20068;-90
2023/02/08 02:14:34;;;;;;;22.95;12.48;;;;;;;-2.85;69.03;102783.47;5028977;28;20026;-89
2023/02/08 02:17:00;;;;;;;23.05;13.68;;;;;;;-2.93;69.47;102786.03;5009365;28;20030;-89
2023/02/08 02:19:47;;;;;;;24.50;13.80;;;;;;;-3.01;69.90;102783.50;5012448;28;20103;-89
2023/02/08 02:22:31;;;;;;;27.58;14.15;;;;;;;-3.03;69.66;102784.34;5024111;28;20124;-90
2023/02/08 02:24:59;;;;;;;27.60;14.20;;;;;;;-3.06;69.87;102776.72;5008170;28;20048;-89
2023/02/08 02:27:38;;;;;;;22.38;12.90;;;;;;;-3.12;70.30;102776.72;5011192;28;20041;-89
2023/02/08 02:30:25;;;;;;;24.58;12.57;;;;;;;-3.14;71.31;102773.31;5011609;28;20053;-89
2023/02/08 02:33:04;;;;;;;27.85;14.45;;;;;;;-3.15;70.53;102774.16;5025765;28;20033;-89
2023/02/08 02:35:44;;;;;;;23.13;12.02;;;;;;;-3.19;70.65;102767.34;5008913;28;20037;-89
2023/02/08 02:38:46;;;;;;;24.33;13.15;;;;;;;-3.22;71.63;102770.75;5011357;28;20072;-90
2023/02/08 02:41:12;;;;;;;26.50;13.48;;;;;;;-3.23;71.28;102771.59;5011327;28;20640;-89
2023/02/08 02:43:54;;;;;;;24.25;13.45;;;;;;;-3.25;71.95;102769.91;5003219;28;20392;-90
2023/02/08 02:46:39;;;;;;;29.95;14.10;;;;;;;-3.23;71.84;102776.72;5010158;28;20112;-89
2023/02/08 02:49:21;;;;;;;27.23;13.13;;;;;;;-3.15;70.88;102780.09;5025599;28;20106;-89
2023/02/08 02:51:57;;;;;;;28.90;13.88;;;;;;;-3.17;70.99;102769.06;5011307;28;20061;-89
2023/02/08 02:54:29;;;;;;;29.50;14.30;;;;;;;-3.14;71.23;102779.25;5032707;28;20026;-89
2023/02/08 02:57:01;;;;;;;25.35;13.57;;;;;;;-3.08;70.54;102774.16;5030174;28;20057;-89
2023/02/08 02:59:27;;;;;;;27.80;13.48;;;;;;;-2.94;69.60;102786.03;5012595;28;20467;-89
2023/02/08 03:01:55;;;;;;;31.13;13.65;;;;;;;-2.92;68.81;102776.69;5033556;28;20034;-88
2023/02/08 03:04:48;;;;;;;24.67;13.25;;;;;;;-2.98;69.61;102769.03;5032434;28;20041;-89
2023/02/08 03:07:27;;;;;;;83.03;28.48;;;;;;;-3.09;69.94;102769.06;5002888;28;20085;-89
2023/02/08 03:10:24;;;;;;;139.20;44.75;;;;;;;-3.17;72.01;102765.66;5023388;28;20064;-89
2023/02/08 03:13:05;;;;;;;43.13;19.92;;;;;;;-3.31;71.55;102763.13;5001501;28;20488;-89
2023/02/08 03:15:48;;;;;;;58.10;23.88;;;;;;;-3.37;71.61;102760.59;5012638;28;20048;-89
2023/02/08 03:18:39;;;;;;;62.10;26.60;;;;;;;-3.44;72.33;102772.47;5014717;28;20096;-88
2023/02/08 03:21:26;;;;;;;43.53;20.60;;;;;;;-3.56;73.08;102772.47;5011440;28;20333;-89
2023/02/08 03:24:25;;;;;;;44.67;20.30;;;;;;;-3.57;73.07;102765.66;5027642;28;20057;-89
2023/02/08 03:27:04;;;;;;;41.70;18.40;;;;;;;-3.58;73.45;102770.75;5027782;28;20044;-89
2023/02/08 03:29:56;;;;;;;30.05;15.23;;;;;;;-3.56;73.41;102763.97;5032158;28;20392;-88
2023/02/08 03:32:39;;;;;;;34.67;16.15;;;;;;;-3.55;73.00;102763.97;5032114;28;20036;-89
2023/02/08 03:35:47;;;;;;;29.15;14.98;;;;;;;-3.52;73.41;102763.13;5013797;28;20037;-89
2023/02/08 03:38:18;;;;;;;27.65;13.93;;;;;;;-3.53;73.58;102762.28;4935857;28;20084;-89
2023/02/08 03:40:48;;;;;;;27.80;13.77;;;;;;;-3.58;72.98;102763.13;4925925;29;20038;-88
2023/02/08 03:43:22;;;;;;;25.95;14.20;;;;;;;-3.59;72.93;102766.50;4926952;29;20071;-89
2023/02/08 03:46:13;;;;;;;26.88;14.07;;;;;;;-3.60;73.30;102758.03;4917257;29;20035;-89
2023/02/08 03:48:45;;;;;;;28.67;14.38;;;;;;;-3.65;73.59;102766.50;4921981;29;20124;-89
2023/02/08 03:51:11;;;;;;;27.33;14.20;;;;;;;-3.64;73.39;102765.66;4917319;29;20490;-89
2023/02/08 03:53:39;;;;;;;28.85;14.52;;;;;;;-3.70;74.15;102763.94;4932145;29;20028;-89
2023/02/08 03:56:14;;;;;;;28.75;15.05;;;;;;;-3.75;74.17;102766.47;4933987;29;20507;-89
2023/02/08 03:58:46;;;;;;;28.65;14.80;;;;;;;-3.80;73.93;102773.28;4934770;29;20027;-89
2023/02/08 04:01:18;;;;;;;29.92;14.15;;;;;;;-3.86;74.58;102775.84;4933354;29;20483;-89
2023/02/08 04:03:48;;;;;;;27.67;14.13;;;;;;;-3.89;75.23;102773.28;4924666;29;20067;-89
2023/02/08 04:06:15;;;;;;;28.45;15.10;;;;;;;-3.95;75.90;102767.31;4933327;29;20187;-89
2023/02/08 04:08:40;;;;;;;31.70;15.95;;;;;;;-3.96;75.61;102765.63;4958906;28;20057;-90
2023/02/08 04:11:08;;;;;;;30.00;14.05;;;;;;;-4.00;76.63;102759.66;5014757;28;20026;-89
2023/02/08 04:13:33;;;;;;;27.95;14.20;;;;;;;-3.99;76.46;102757.97;5016392;28;20029;-89
2023/02/08 04:15:58;;;;;;;26.42;13.60;;;;;;;-4.04;76.41;102750.31;5016543;28;20086;-89
2023/02/08 04:18:24;;;;;;;25.63;13.00;;;;;;;-4.10;77.34;102747.75;5013477;28;20046;-88
2023/02/08 04:20:49;;;;;;;29.90;13.20;;;;;;;-4.18;78.01;102762.16;5016536;28;20046;-89
2023/02/08 04:23:14;;;;;;;31.80;14.73;;;;;;;-3.98;76.88;102757.97;5016343;28;20077;-89
2023/02/08 04:25:40;;;;;;;28.00;13.98;;;;;;;-3.87;75.43;102758.00;5016752;28;20093;-88
2023/02/08 04:28:05;;;;;;;25.92;13.82;;;;;;;-3.90;75.73;102756.28;5003600;28;20042;-89
2023/02/08 04:30:31;;;;;;;29.40;13.90;;;;;;;-3.99;76.08;102765.59;4991848;28;20493;-89
2023/02/08 04:32:58;;;;;;;25.40;13.73;;;;;;;-4.07;76.82;102763.03;4992140;28;20106;-89
2023/02/08 04:35:24;;;;;;;28.00;14.32;;;;;;;-4.11;77.38;102757.06;4991708;28;20105;-89
2023/02/08 04:37:49;;;;;;;26.15;13.23;;;;;;;-4.09;77.27;102757.94;4991219;28;20221;-88
2023/02/08 04:40:15;;;;;;;32.03;15.55;;;;;;;-4.14;77.87;102776.59;4992180;28;20038;-89
2023/02/08 04:42:40;;;;;;;29.40;14.18;;;;;;;-4.18;77.84;102780.81;4990545;28;20031;-89
2023/02/08 04:45:06;;;;;;;24.13;13.02;;;;;;;-4.19;78.31;102779.13;4992171;28;20035;-89
2023/02/08 04:47:32;;;;;;;26.75;13.43;;;;;;;-4.12;78.13;102764.72;4990153;28;20030;-89
2023/02/08 04:49:57;;;;;;;24.65;13.68;;;;;;;-4.16;77.20;102765.53;4992127;28;20121;-89
2023/02/08 04:52:22;;;;;;;27.27;14.35;;;;;;;-4.16;77.39;102768.94;4991606;28;20026;-89
2023/02/08 04:54:48;;;;;;;30.20;15.07;;;;;;;-4.15;77.75;102763.00;4990258;28;20038;-89
2023/02/08 04:57:14;;;;;;;27.83;14.05;;;;;;;-4.21;78.26;102762.13;4991105;28;20022;-89
2023/02/08 04:59:39;;;;;;;31.85;13.80;;;;;;;-4.34;79.43;102761.25;4988565;28;20034;-88
2023/02/08 05:02:05;;;;;;;26.02;13.50;;;;;;;-4.38;78.96;102754.47;4990293;28;20041;-89
2023/02/08 05:04:31;;;;;;;27.48;14.73;;;;;;;-4.32;79.20;102763.81;5001634;28;20042;-89
2023/02/08 05:06:57;;;;;;;27.98;14.75;;;;;;;-4.23;78.96;102761.28;5009579;28;20038;-88
2023/02/08 05:09:23;;;;;;;24.80;13.35;;;;;;;-4.21;78.96;102765.53;5008214;28;20040;-90
2023/02/08 05:11:48;;;;;;;27.00;13.50;;;;;;;-4.17;78.36;102756.22;5010018;28;20100;-89
2023/02/08 05:14:13;;;;;;;28.60;14.98;;;;;;;-4.14;78.61;102753.66;5008033;28;20030;-88
2023/02/08 05:16:39;;;;;;;28.13;14.23;;;;;;;-4.11;78.17;102751.13;5011541;28;20026;-89
2023/02/08 05:19:04;;;;;;;28.45;13.93;;;;;;;-4.16;78.29;102757.91;5009999;28;20033;-89
2023/02/08 05:21:30;;;;;;;28.27;13.95;;;;;;;-4.31;79.49;102756.19;5009413;28;20040;-89
2023/02/08 05:23:55;;;;;;;28.15;14.25;;;;;;;-4.32;78.71;102751.94;5010075;28;20389;-88
2023/02/08 05:26:20;;;;;;;28.30;13.70;;;;;;;-4.29;78.91;102756.19;5009895;28;20497;-89
2023/02/08 05:28:46;;;;;;;29.33;13.60;;;;;;;-4.30;78.74;102768.06;5011247;28;20080;-89
2023/02/08 05:31:16;;;;;;;24.67;13.15;;;;;;;-4.22;78.70;102765.53;5009978;28;20200;-89
2023/02/08 05:33:42;;;;;;;24.77;13.13;;;;;;;-4.22;78.52;102760.44;5009666;28;20029;-88
2023/02/08 05:36:07;;;;;;;27.05;13.98;;;;;;;-4.26;78.92;102776.56;5008277;28;20056;-89
2023/02/08 05:38:33;;;;;;;28.73;14.57;;;;;;;-4.31;79.65;102768.91;5010716;28;20046;-89
2023/02/08 05:40:58;;;;;;;28.85;13.90;;;;;;;-4.33;80.27;102770.59;5009731;28;20037;-89
2023/02/08 05:43:24;;;;;;;30.20;15.35;;;;;;;-4.29;79.86;102776.56;5009205;28;20038;-88
2023/02/08 05:45:50;;;;;;;27.48;14.40;;;;;;;-4.24;79.07;102779.94;5011532;28;20097;-89
2023/02/08 05:48:15;;;;;;;24.80;12.82;;;;;;;-4.27;78.98;102775.72;5011871;28;20045;-90
2023/02/08 05:50:41;;;;;;;25.73;13.27;;;;;;;-4.36;79.25;102775.66;5011089;28;20037;-89
2023/02/08 05:53:07;;;;;;;23.48;12.90;;;;;;;-4.41;79.47;102777.34;5010122;28;20052;-90
2023/02/08 05:55:32;;;;;;;28.50;13.20;;;;;;;-4.52;81.01;102784.06;5011637;28;20053;-89
2023/02/08 05:57:58;;;;;;;27.00;14.80;;;;;;;-4.55;81.04;102786.59;5010193;28;20098;-89
2023/02/08 06:00:23;;;;;;;33.78;14.00;;;;;;;-4.57;81.03;102781.50;5011111;28;20374;-89
2023/02/08 06:02:51;;;;;;;33.92;14.65;;;;;;;-4.58;81.86;102796.75;5010333;28;20034;-90
2023/02/08 06:05:17;;;;;;;29.52;15.15;;;;;;;-4.59;81.70;102795.91;5010370;28;20042;-89
2023/02/08 06:07:42;;;;;;;29.30;14.82;;;;;;;-4.57;81.66;102795.91;5011489;28;20038;-89
2023/02/08 06:10:08;;;;;;;27.02;14.55;;;;;;;-4.62;81.89;102792.50;5010478;28;20034;-89
2023/02/08 06:12:33;;;;;;;38.35;15.77;;;;;;;-4.61;81.65;102797.59;5010223;28;20018;-89
2023/02/08 06:14:59;;;;;;;31.55;14.80;;;;;;;-4.62;82.57;102790.81;5009934;28;20030;-89
2023/02/08 06:17:24;;;;;;;32.30;16.52;;;;;;;-4.59;82.49;102789.97;5009904;28;20030;-89
2023/02/08 06:19:49;;;;;;;32.58;15.70;;;;;;;-4.58;82.18;102797.59;5011316;28;20037;-88
2023/02/08 06:22:15;;;;;;;28.00;13.35;;;;;;;-4.62;83.23;102797.59;5017577;28;20032;-88
2023/02/08 06:24:40;;;;;;;28.80;14.30;;;;;;;-4.63;83.09;102806.91;5014538;28;20052;-88
2023/02/08 06:27:06;;;;;;;29.15;15.30;;;;;;;-4.62;83.09;102797.59;5015204;28;20037;-89
2023/02/08 06:29:31;;;;;;;32.72;14.68;;;;;;;-4.59;83.09;102793.38;5022944;28;20049;-89
2023/02/08 06:31:57;;;;;;;30.42;15.15;;;;;;;-4.58;83.52;102799.31;5030789;28;20025;-88
2023/02/08 06:34:22;;;;;;;33.17;14.82;;;;;;;-4.59;83.23;102802.69;5016051;28;20434;-89
2023/02/08 06:36:48;;;;;;;32.90;15.13;;;;;;;-4.61;83.29;102801.81;5016205;28;20046;-90
2023/02/08 06:39:13;;;;;;;37.47;15.10;;;;;;;-4.60;83.23;102801.00;5014548;28;20129;-89
2023/02/08 06:41:38;;;;;;;32.40;14.18;;;;;;;-4.58;83.27;102805.25;5016516;28;20029;-89
2023/02/08 06:44:04;;;;;;;35.00;15.43;;;;;;;-4.56;83.47;102801.00;5015870;28;20433;-89
2023/02/08 06:46:29;;;;;;;33.42;15.55;;;;;;;-4.53;83.51;102802.72;5014591;28;20034;-89
2023/02/08 06:48:56;;;;;;;29.05;14.35;;;;;;;-4.51;83.92;102801.03;5015396;28;20029;-89
2023/02/08 06:51:22;;;;;;;43.45;17.55;;;;;;;-4.50;83.13;102803.59;5016820;28;20038;-90
2023/02/08 06:53:47;;;;;;;30.75;15.45;;;;;;;-4.44;83.27;102806.19;5016685;28;20396;-89
2023/02/08 06:56:13;;;;;;;28.95;15.77;;;;;;;-4.42;83.35;102801.94;5033738;28;20057;-88
2023/02/08 06:58:38;;;;;;;34.63;15.57;;;;;;;-4.39;83.00;102796.88;5017193;28;20030;-89
2023/02/08 07:01:04;;;;;;;31.38;15.70;;;;;;;-4.36;83.42;102791.78;5014824;28;20029;-89
2023/02/08 07:03:29;;;;;;;39.35;17.48;;;;;;;-4.27;83.23;102801.16;5017246;28;20045;-89
2023/02/08 07:05:57;;;;;;;32.45;17.23;;;;;;;-4.19;83.09;102806.25;5018015;28;20575;-90
2023/02/08 07:08:22;;;;;;;38.83;17.00;;;;;;;-4.11;83.26;102807.16;5018025;28;20437;-88
2023/02/08 07:10:48;;;;;;;34.25;18.27;;;;;;;-3.97;82.82;102814.84;5035814;28;20037;-89
2023/02/08 07:13:13;;;;;;;31.75;16.77;;;;;;;-3.89;82.68;102797.91;5036211;28;20017;-90
2023/02/08 07:15:39;;;;;;;37.20;18.27;;;;;;;-3.79;82.85;102802.16;5030331;28;20277;-89
2023/02/08 07:18:04;;;;;;;35.08;18.58;;;;;;;-3.65;82.63;102795.38;5017697;28;20415;-89
2023/02/08 07:20:29;;;;;;;44.75;20.77;;;;;;;-3.52;82.18;102803.91;5013294;28;20075;-90
2023/02/08 07:22:55;;;;;;;35.03;18.38;;;;;;;-3.42;82.44;102808.16;5014948;28;20055;-89
2023/02/08 07:25:20;;;;;;;40.75;21.13;;;;;;;-3.32;81.67;102803.94;5011018;28;20108;-89
2023/02/08 07:27:46;;;;;;;46.42;19.80;;;;;;;-3.27;80.76;102808.16;5008480;28;20029;-89
2023/02/08 07:30:12;;;;;;;40.17;18.58;;;;;;;-3.16;80.97;102806.47;5034437;28;20032;-89
2023/02/08 07:32:37;;;;;;;45.47;19.60;;;;;;;-3.02;80.80;102792.00;5028581;28;20124;-89
2023/02/08 07:35:03;;;;;;;39.20;17.33;;;;;;;-2.92;80.67;102797.09;5031590;28;20029;-89
2023/02/08 07:37:28;;;;;;;32.83;17.35;;;;;;;-2.87;79.80;102793.69;5025467;28;20029;-89
2023/02/08 07:39:54;;;;;;;33.80;18.45;;;;;;;-2.78;79.69;102795.34;5009884;28;20049;-89
2023/02/08 07:42:20;;;;;;;37.63;18.48;;;;;;;-2.67;79.13;102798.75;5016203;28;20037;-89
2023/02/08 07:44:45;;;;;;;31.75;15.73;;;;;;;-2.58;78.45;102793.63;5034589;28;20031;-89
2023/02/08 07:47:10;;;;;;;30.85;15.65;;;;;;;-2.44;77.45;102801.25;5016566;28;20082;-89
2023/02/08 07:49:36;;;;;;;23.88;12.23;;;;;;;-2.21;76.45;102796.88;5030708;28;20139;-88
2023/02/08 07:52:02;;;;;;;18.98;10.07;;;;;;;-1.67;71.29;102787.22;5031688;28;20029;-89
2023/02/08 07:54:28;;;;;;;28.13;12.38;;;;;;;-1.55;71.24;102782.03;5014139;28;20030;-91
2023/02/08 07:56:55;;;;;;;20.83;9.93;;;;;;;-1.37;69.74;102804.03;5012049;28;20469;-90
2023/02/08 07:59:21;;;;;;;18.30;9.60;;;;;;;-1.20;67.92;102799.66;5030172;28;20079;-91
2023/02/08 08:01:46;;;;;;;21.73;9.63;;;;;;;-0.91;64.29;102790.84;5025575;28;20373;-90
2023/02/08 08:04:12;;;;;;;20.60;10.18;;;;;;;-0.61;64.46;102789.69;5015958;28;20124;-89
2023/02/08 08:06:37;;;;;;;19.50;10.23;;;;;;;-0.60;64.87;102792.25;5014858;28;20087;-90
2023/02/08 08:09:04;;;;;;;18.40;9.77;;;;;;;-0.59;65.00;102803.34;5015248;28;20087;-90
2023/02/08 08:11:30;;;;;;;19.05;9.48;;;;;;;-0.56;64.05;102793.06;5012258;28;20429;-89
2023/02/08 08:13:55;;;;;;;18.60;8.35;;;;;;;-0.32;60.56;102802.16;5014318;28;20060;-90
2023/02/08 08:16:21;;;;;;;18.55;8.95;;;;;;;-0.15;61.30;102798.53;5032021;28;20033;-88
2023/02/08 08:18:47;;;;;;;20.35;10.50;;;;;;;-0.19;61.35;102799.44;5030742;28;20477;-89
2023/02/08 08:21:14;;;;;;;15.75;7.53;;;;;;;-0.06;60.37;102836.00;5014126;28;20021;-89
2023/02/08 08:23:39;;;;;;;27.55;7.68;;;;;;;0.02;57.56;102816.22;5031420;28;20030;-89
2023/02/08 08:26:17;;;;;;;17.25;7.63;;;;;;;0.17;55.63;102816.03;5031580;28;20107;-88
2023/02/08 08:28:45;;;;;;;19.48;7.10;;;;;;;0.32;56.82;102812.41;5013269;28;20493;-89
2023/02/08 08:31:15;;;;;;;15.98;6.38;;;;;;;0.41;56.46;102820.00;5014407;28;20060;-89
2023/02/08 08:33:41;;;;;;;13.20;5.90;;;;;;;0.55;54.45;102809.50;5012148;28;21285;-89
2023/02/08 08:36:07;;;;;;;12.48;5.65;;;;;;;0.64;54.67;102814.50;5014281;28;20096;-89
2023/02/08 08:38:39;;;;;;;11.57;6.00;;;;;;;0.70;54.72;102819.53;5010019;28;20184;-88
2023/02/08 08:41:15;;;;;;;10.98;5.55;;;;;;;0.77;53.29;102810.03;5012466;28;20034;-89
2023/02/08 08:43:41;;;;;;;;;;;;;;;0.85;52.57;102818.44;5013160;28;20033;-89
2023/02/08 08:46:07;;;;;;;9.97;4.73;;;;;;;0.86;54.01;102866.34;5025216;28;19912;-89
2023/02/08 08:48:34;;;;;;;19.65;6.40;;;;;;;0.74;52.42;102810.91;5010306;28;20099;-90
2023/02/08 08:51:00;;;;;;;13.15;6.25;;;;;;;0.82;52.62;102827.03;5013333;28;20033;-90
2023/02/08 08:53:25;;;;;;;10.75;5.28;;;;;;;0.88;51.51;102808.97;5030377;28;20080;-91
2023/02/08 08:55:51;;;;;;;17.52;7.00;;;;;;;0.90;51.64;102803.81;5011707;28;20037;-90
2023/02/08 08:58:17;;;;;;;16.88;6.57;;;;;;;0.98;50.98;102809.63;5013230;28;20113;-89
2023/02/08 09:00:42;;;;;;;15.82;5.88;;;;;;;1.02;51.33;102820.72;5009609;28;20030;-91
2023/02/08 09:03:07;;;;;;;13.77;6.50;;;;;;;1.04;52.40;102814.69;5012574;28;20037;-91
2023/02/08 09:05:34;;;;;;;16.35;6.53;;;;;;;1.01;52.72;102832.69;5013634;28;20056;-90
2023/02/08 09:08:00;;;;;;;10.45;6.10;;;;;;;1.04;50.54;102840.34;5013028;28;20059;-90
2023/02/08 09:10:26;;;;;;;14.00;7.18;;;;;;;1.01;50.04;102830.13;5012348;28;20041;-90
2023/02/08 09:12:51;;;;;;;11.18;6.82;;;;;;;1.07;50.14;102832.59;5008883;28;20034;-90
2023/02/08 09:15:17;;;;;;;14.65;5.75;;;;;;;1.19;49.73;102846.94;5031220;28;20037;-91
2023/02/08 09:17:43;;;;;;;8.98;4.70;;;;;;;1.23;49.92;102822.91;5010835;28;20124;-90
2023/02/08 09:20:09;;;;;;;13.63;5.45;;;;;;;1.24;49.32;102837.44;5030507;28;20029;-91
2023/02/08 09:22:34;;;;;;;10.73;5.47;;;;;;;1.23;49.86;102815.22;5011261;28;20037;-91
2023/02/08 09:25:00;;;;;;;14.02;5.35;;;;;;;1.37;49.02;102833.78;5027750;28;20183;-91
2023/02/08 09:27:27;;;;;;;13.55;5.28;;;;;;;1.43;49.10;102828.50;5030816;28;20040;-91
2023/02/08 09:29:53;;;;;;;7.85;5.38;;;;;;;1.25;48.86;102828.88;5030524;28;20578;-91
2023/02/08 09:32:20;;;;;;;15.80;5.38;;;;;;;1.23;49.56;102823.75;5011501;28;20065;-91
2023/02/08 09:34:45;;;;;;;10.07;5.65;;;;;;;1.29;48.96;102851.91;5028884;28;20500;-90
2023/02/08 09:37:11;;;;;;;12.55;5.55;;;;;;;1.40;48.31;102833.75;5029649;28;20042;-91
2023/02/08 09:39:36;;;;;;;11.52;5.10;;;;;;;1.41;49.01;102832.88;5012052;28;20040;-92
2023/02/08 09:42:26;;;;;;;17.77;6.20;;;;;;;1.42;50.03;102846.56;5026539;28;20334;-91
2023/02/08 09:45:13;;;;;;;14.48;7.20;;;;;;;1.58;49.60;102847.94;5008006;28;20088;-91
2023/02/08 09:47:49;;;;;;;10.07;5.28;;;;;;;1.58;48.62;102847.94;5030532;28;20033;-91
2023/02/08 09:50:21;;;;;;;14.85;7.78;;;;;;;1.43;49.69;102841.34;5012065;28;20497;-92
2023/02/08 09:52:57;;;;;;;10.93;5.35;;;;;;;1.52;48.66;102846.34;5029214;28;20034;-91
2023/02/08 09:55:50;;;;;;;9.02;4.97;;;;;;;1.67;48.05;102843.47;5002689;28;20204;-91
2023/02/08 09:58:37;;;;;;;11.00;6.30;;;;;;;1.65;47.67;102870.09;5027241;28;20095;-91
2023/02/08 10:01:02;;;;;;;;;;;;;;;1.73;47.48;102862.22;5026608;28;20500;-91
2023/02/08 10:03:34;;;;;;;8.43;4.47;;;;;;;1.74;47.65;102853.63;5023254;28;20039;-91
2023/02/08 10:06:01;;;;;;;9.18;4.97;;;;;;;1.83;48.00;102864.59;5032037;28;20029;-91
2023/02/08 10:08:28;;;;;;;9.63;5.10;;;;;;;1.88;47.82;102872.22;5030327;28;20087;-90
2023/02/08 10:11:03;;;;;;;11.38;5.68;;;;;;;1.87;47.70;102878.25;5012566;28;20128;-94
2023/02/08 10:13:59;;;;;;;9.27;5.03;;;;;;;1.59;47.40;102885.59;5030105;28;20481;-92
2023/02/08 10:16:30;;;;;;;8.93;4.83;;;;;;;1.58;47.90;102873.63;5005041;28;20511;-91
2023/02/08 10:19:27;;;;;;;11.45;5.13;;;;;;;1.75;46.88;102911.88;5009754;28;20041;-91
2023/02/08 10:22:30;;;;;;;9.00;4.35;;;;;;;1.69;47.23;102878.59;5011926;28;20053;-91
2023/02/08 10:25:16;;;;;;;11.40;4.75;;;;;;;1.77;47.41;102890.41;5028165;28;20120;-88
2023/02/08 10:27:48;;;;;;;11.00;5.63;;;;;;;1.85;47.43;102893.69;5010139;28;20110;-88
2023/02/08 10:30:43;;;;;;;10.70;5.30;;;;;;;1.67;48.83;102866.59;5010352;28;20029;-89
2023/02/08 10:33:41;;;;;;;8.70;4.85;;;;;;;1.83;47.20;102881.75;5005537;28;20542;-91
2023/02/08 10:36:19;;;;;;;12.27;6.55;;;;;;;1.77;47.49;102880.13;5002543;28;20092;-89
2023/02/08 10:38:48;;;;;;;10.32;5.05;;;;;;;1.64;48.28;102858.09;5008878;28;20034;-89
2023/02/08 10:41:21;;;;;;;11.98;5.97;;;;;;;1.79;48.05;102878.38;5023713;28;20029;-90
2023/02/08 10:44:03;;;;;;;9.60;5.18;;;;;;;1.90;47.83;102888.44;5025235;28;20385;-89
2023/02/08 10:46:46;;;;;;;9.48;5.53;;;;;;;1.82;47.65;102869.75;5026593;28;20043;-90
2023/02/08 10:49:29;;;;;;;8.90;5.43;;;;;;;1.68;48.18;102880.31;5024246;28;20120;-90
2023/02/08 10:51:55;;;;;;;10.27;5.70;;;;;;;1.71;48.59;102874.25;5011532;28;20043;-90
2023/02/08 10:54:20;;;;;;;10.50;5.30;;;;;;;1.86;47.84;102868.84;5027882;28;20435;-89
2023/02/08 10:56:57;;;;;;;7.40;4.68;;;;;;;1.88;47.83;102877.38;5007864;28;20026;-90
2023/02/08 10:59:34;;;;;;;10.98;5.63;;;;;;;1.83;48.16;102884.31;5016572;28;20431;-89
2023/02/08 11:02:00;;;;;;;9.32;4.55;;;;;;;1.81;47.97;102884.34;5015571;28;20030;-89
2023/02/08 11:04:26;;;;;;;13.63;5.38;;;;;;;1.87;48.25;102866.22;5017118;28;20619;-88
2023/02/08 11:06:53;;;;;;;8.82;5.03;;;;;;;1.92;47.15;102863.53;5023631;28;20124;-89
2023/02/08 11:09:21;;;;;;;17.77;6.70;;;;;;;1.89;47.77;102871.34;5034293;28;20037;-90
2023/02/08 11:11:51;;;;;;;10.07;5.53;;;;;;;1.70;48.16;102870.00;5012886;28;20041;-90
2023/02/08 11:14:19;;;;;;;14.45;5.57;;;;;;;1.69;48.71;102855.44;5016404;28;20046;-89
2023/02/08 11:16:49;;;;;;;17.77;6.97;;;;;;;1.66;48.81;102876.91;5011853;28;20108;-91
2023/02/08 11:19:45;;;;;;;11.63;6.85;;;;;;;1.62;48.02;102881.25;5014705;28;20057;-91
2023/02/08 11:22:15;;;;;;;11.35;6.05;;;;;;;1.62;48.06;102896.69;4999448;28;20077;-91
2023/02/08 11:24:42;;;;;;;11.80;6.03;;;;;;;1.63;47.96;102882.97;5015396;28;21952;-91
2023/02/08 11:27:40;;;;;;;15.60;6.82;;;;;;;1.73;48.11;102895.63;5015508;28;20075;-92